createdAt,value
2019-05-21T00:00:10.856Z,15.40
2019-05-21T00:02:39.699Z,15.40
2019-05-21T00:05:08.619Z,15.40
2019-05-21T00:07:37.578Z,15.40
2019-05-21T00:10:07.404Z,15.50
2019-05-21T00:12:36.285Z,15.50
2019-05-21T00:15:06.932Z,15.60
2019-05-21T00:17:35.880Z,15.70
2019-05-21T00:20:07.444Z,15.70
2019-05-21T00:22:36.331Z,15.70
2019-05-21T00:25:06.802Z,15.70
2019-05-21T00:27:36.151Z,15.60
2019-05-21T00:30:40.933Z,15.60
2019-05-21T00:33:45.591Z,15.60
2019-05-21T00:36:52.244Z,15.60
2019-05-21T00:39:56.948Z,15.60
2019-05-21T00:42:31.661Z,15.40
2019-05-21T00:44:59.646Z,15.40
2019-05-21T00:47:28.468Z,15.50
2019-05-21T00:49:57.279Z,15.50
2019-05-21T00:52:26.080Z,15.60
2019-05-21T00:54:55.801Z,15.70
2019-05-21T00:57:24.564Z,15.80
2019-05-21T00:59:53.319Z,15.90
2019-05-21T01:02:22.124Z,15.90
2019-05-21T01:05:00.261Z,16.00
2019-05-21T01:07:21.348Z,16.10
2019-05-21T01:09:50.171Z,16.10
2019-05-21T01:12:19.062Z,16.20
2019-05-21T01:14:48.512Z,16.10
2019-05-21T01:17:17.355Z,16.20
2019-05-21T01:19:46.149Z,16.30
2019-05-21T01:22:14.914Z,16.20
2019-05-21T01:24:43.653Z,16.20
2019-05-21T01:27:12.458Z,16.20
2019-05-21T01:29:41.164Z,16.00
2019-05-21T01:32:11.021Z,16.00
2019-05-21T01:34:39.696Z,16.00
2019-05-21T01:37:08.443Z,15.90
2019-05-21T01:39:37.273Z,16.00
2019-05-21T01:42:06.215Z,15.90
2019-05-21T01:44:35.016Z,15.90
2019-05-21T01:47:03.881Z,15.80
2019-05-21T01:49:32.737Z,15.70
2019-05-21T01:52:01.632Z,15.40
2019-05-21T01:54:30.465Z,15.30
2019-05-21T01:56:59.268Z,15.20
2019-05-21T01:59:28.009Z,15.10
2019-05-21T02:01:56.738Z,15.00
2019-05-21T02:04:25.625Z,15.20
2019-05-21T02:06:54.512Z,15.30
2019-05-21T02:09:23.301Z,15.30
2019-05-21T02:11:52.100Z,15.30
2019-05-21T02:14:20.931Z,15.20
2019-05-21T02:16:49.665Z,15.00
2019-05-21T02:19:18.528Z,14.90
2019-05-21T02:21:47.273Z,15.00
2019-05-21T02:24:16.018Z,15.00
2019-05-21T02:26:44.878Z,15.00
2019-05-21T02:29:13.761Z,14.90
2019-05-21T02:31:42.639Z,14.90
2019-05-21T02:34:11.433Z,14.80
2019-05-21T02:36:40.199Z,14.80
2019-05-21T02:39:09.128Z,14.80
2019-05-21T02:41:38.017Z,14.70
2019-05-21T02:44:06.831Z,14.60
2019-05-21T02:46:35.718Z,14.60
2019-05-21T02:49:04.459Z,14.60
2019-05-21T02:51:33.269Z,14.50
2019-05-21T02:54:02.033Z,14.50
2019-05-21T02:56:30.853Z,14.50
2019-05-21T02:58:59.691Z,14.50
2019-05-21T03:01:32.850Z,14.60
2019-05-21T03:04:01.675Z,14.60
2019-05-21T03:06:30.514Z,14.60
2019-05-21T03:08:59.434Z,14.50
2019-05-21T03:11:28.244Z,14.50
2019-05-21T03:13:57.059Z,14.50
2019-05-21T03:16:25.849Z,14.60
2019-05-21T03:18:54.719Z,14.60
2019-05-21T03:21:23.514Z,14.50
2019-05-21T03:23:52.339Z,14.50
2019-05-21T03:26:21.160Z,14.60
2019-05-21T03:28:49.959Z,14.60
2019-05-21T03:31:18.715Z,14.60
2019-05-21T03:33:47.472Z,14.70
2019-05-21T03:36:31.736Z,14.80
2019-05-21T03:38:46.881Z,14.70
2019-05-21T03:41:15.553Z,14.80
2019-05-21T03:43:44.436Z,14.80
2019-05-21T03:46:13.233Z,14.90
2019-05-21T03:48:42.127Z,14.90
2019-05-21T03:51:10.938Z,15.00
2019-05-21T03:53:39.646Z,15.10
2019-05-21T03:56:08.535Z,15.10
2019-05-21T03:58:37.290Z,15.10
2019-05-21T04:01:06.128Z,15.10
2019-05-21T04:03:34.947Z,15.00
2019-05-21T04:06:03.761Z,15.20
2019-05-21T04:08:32.554Z,15.30
2019-05-21T04:11:01.376Z,15.30
2019-05-21T04:13:30.123Z,15.40
2019-05-21T04:16:06.237Z,15.50
2019-05-21T04:18:48.730Z,15.70
2019-05-21T04:21:17.634Z,15.70
2019-05-21T04:23:46.366Z,15.80
2019-05-21T04:26:15.200Z,15.90
2019-05-21T04:28:43.930Z,15.80
2019-05-21T04:31:12.744Z,15.90
2019-05-21T04:33:41.398Z,15.90
2019-05-21T04:36:10.171Z,16.10
2019-05-21T04:38:38.978Z,16.20
2019-05-21T04:41:07.795Z,16.10
2019-05-21T04:43:36.636Z,16.00
2019-05-21T04:46:05.467Z,16.00
2019-05-21T04:48:34.289Z,16.00
2019-05-21T04:51:03.113Z,16.00
2019-05-21T04:53:32.001Z,16.00
2019-05-21T04:56:00.663Z,15.90
2019-05-21T04:58:29.525Z,15.90
2019-05-21T05:00:58.337Z,15.80
2019-05-21T05:03:27.138Z,15.90
2019-05-21T05:05:55.917Z,16.00
2019-05-21T05:08:24.733Z,16.00
2019-05-21T05:10:53.554Z,16.10
2019-05-21T05:13:22.355Z,16.10
2019-05-21T05:15:51.072Z,16.00
2019-05-21T05:18:19.820Z,16.00
2019-05-21T05:20:48.609Z,16.10
2019-05-21T05:23:17.424Z,16.20
2019-05-21T05:25:46.245Z,16.30
2019-05-21T05:28:14.986Z,16.30
2019-05-21T05:30:43.803Z,16.30
2019-05-21T05:33:12.569Z,16.30
2019-05-21T05:35:41.384Z,16.30
2019-05-21T05:38:10.216Z,16.20
2019-05-21T05:40:39.060Z,16.30
2019-05-21T05:43:07.850Z,16.20
2019-05-21T05:45:36.744Z,16.20
2019-05-21T05:48:05.670Z,16.00
2019-05-21T05:50:39.092Z,16.00
2019-05-21T05:53:07.904Z,16.00
2019-05-21T05:55:36.845Z,16.10
2019-05-21T05:58:05.671Z,16.10
2019-05-21T06:00:34.490Z,16.20
2019-05-21T06:03:03.376Z,16.20
2019-05-21T06:05:39.543Z,16.20
2019-05-21T06:08:08.389Z,16.20
2019-05-21T06:10:40.004Z,16.10
2019-05-21T06:13:07.760Z,16.00
2019-05-21T06:15:36.619Z,16.00
2019-05-21T06:18:07.013Z,16.00
2019-05-21T06:20:35.946Z,16.10
2019-05-21T06:23:04.989Z,16.00
2019-05-21T06:25:33.806Z,16.00
2019-05-21T06:28:04.184Z,16.00
2019-05-21T06:30:34.216Z,16.20
2019-05-21T06:33:02.958Z,16.50
2019-05-21T06:35:31.876Z,16.50
2019-05-21T06:38:16.571Z,16.60
2019-05-21T06:40:31.212Z,16.70
2019-05-21T06:43:00.056Z,16.60
2019-05-21T06:45:28.900Z,16.60
2019-05-21T06:47:57.964Z,16.80
2019-05-21T06:50:26.957Z,16.80
2019-05-21T06:52:57.459Z,16.90
2019-05-21T06:55:26.335Z,16.90
2019-05-21T06:57:55.727Z,17.00
2019-05-21T07:00:24.676Z,17.00
2019-05-21T07:02:53.512Z,16.90
2019-05-21T07:05:22.401Z,16.70
2019-05-21T07:07:51.305Z,16.60
2019-05-21T07:10:20.337Z,16.80
2019-05-21T07:13:00.109Z,16.80
2019-05-21T07:15:29.023Z,16.80
2019-05-21T07:17:58.526Z,17.00
2019-05-21T07:20:27.542Z,17.20
2019-05-21T07:22:56.606Z,17.30
2019-05-21T07:25:25.687Z,17.60
2019-05-21T07:27:55.793Z,17.40
2019-05-21T07:30:24.750Z,17.30
2019-05-21T07:32:53.791Z,17.30
2019-05-21T07:35:22.920Z,17.30
2019-05-21T07:37:51.853Z,17.30
2019-05-21T07:40:21.774Z,17.10
2019-05-21T07:42:50.735Z,17.10
2019-05-21T07:45:19.679Z,17.20
2019-05-21T07:47:48.593Z,17.20
2019-05-21T07:50:17.829Z,17.30
2019-05-21T07:52:46.666Z,17.30
2019-05-21T07:55:38.465Z,17.30
2019-05-21T07:58:07.355Z,17.30
2019-05-21T08:00:37.234Z,17.30
2019-05-21T08:03:06.252Z,17.40
2019-05-21T08:05:35.136Z,17.30
2019-05-21T08:08:04.374Z,17.20
2019-05-21T08:10:34.227Z,17.10
2019-05-21T08:13:04.946Z,17.10
2019-05-21T08:15:33.898Z,17.00
2019-05-21T08:18:02.785Z,17.20
2019-05-21T08:20:33.421Z,17.30
2019-05-21T08:23:03.888Z,17.30
2019-05-21T08:25:38.780Z,17.60
2019-05-21T08:28:11.641Z,17.90
2019-05-21T08:30:40.151Z,18.00
2019-05-21T08:36:40.089Z,18.20
2019-05-21T08:42:21.959Z,18.00
2019-05-21T08:44:44.288Z,18.10
2019-05-21T08:47:16.232Z,18.20
2019-05-21T08:55:24.003Z,18.10
2019-05-21T09:12:22.738Z,18.10
2019-05-21T09:14:35.821Z,18.10
2019-05-21T09:17:56.935Z,18.20
2019-05-21T09:26:24.059Z,18.40
2019-05-21T09:28:58.452Z,18.30
2019-05-21T09:31:30.410Z,18.40
2019-05-21T09:34:04.686Z,18.40
2019-05-21T09:36:37.955Z,18.60
2019-05-21T09:39:21.415Z,18.80
2019-05-21T09:42:00.662Z,18.60
2019-05-21T09:44:33.612Z,18.50
2019-05-21T09:47:09.722Z,18.60
2019-05-21T09:49:36.208Z,18.60
2019-05-21T09:52:34.104Z,18.60
2019-05-21T10:04:42.232Z,18.40
2019-05-21T10:07:13.235Z,18.60
2019-05-21T10:09:45.366Z,18.60
2019-05-21T10:14:57.018Z,18.80
2019-05-21T11:20:35.186Z,20.70
2019-05-21T11:23:05.580Z,21.10
2019-05-21T11:25:49.695Z,21.10
2019-05-21T11:28:18.619Z,21.20
2019-05-21T11:30:50.681Z,21.30
2019-05-21T11:33:21.325Z,21.30
2019-05-21T11:35:50.295Z,21.30
2019-05-21T11:38:20.200Z,21.30
2019-05-21T11:40:51.131Z,21.10
2019-05-21T11:43:19.792Z,21.00
2019-05-21T11:45:48.642Z,20.90
2019-05-21T11:48:17.465Z,20.90
2019-05-21T11:50:46.283Z,20.90
2019-05-21T11:53:15.700Z,20.70
2019-05-21T11:55:44.666Z,20.70
2019-05-21T11:58:13.839Z,20.70
2019-05-21T12:00:42.807Z,20.70
2019-05-21T12:03:11.752Z,20.80
2019-05-21T12:05:40.926Z,20.80
2019-05-21T12:08:11.047Z,20.90
2019-05-21T12:10:40.516Z,20.90
2019-05-21T12:13:11.946Z,20.90
2019-05-21T12:15:42.401Z,21.00
2019-05-21T12:18:11.332Z,21.00
2019-05-21T12:20:40.258Z,20.90
2019-05-21T12:23:11.850Z,20.90
2019-05-21T12:25:40.799Z,21.10
2019-05-21T12:28:11.726Z,21.20
2019-05-21T12:30:40.373Z,21.60
2019-05-21T12:33:09.284Z,21.60
2019-05-21T12:35:38.379Z,21.50
2019-05-21T12:38:07.408Z,21.50
2019-05-21T12:40:36.316Z,21.60
2019-05-21T12:43:05.248Z,21.80
2019-05-21T12:45:34.242Z,21.70
2019-05-21T12:48:03.182Z,21.50
2019-05-21T12:50:32.170Z,21.50
2019-05-21T12:53:02.483Z,21.50
2019-05-21T12:55:31.512Z,21.40
2019-05-21T12:58:00.909Z,21.40
2019-05-21T13:00:31.496Z,21.40
2019-05-21T13:03:07.740Z,21.30
2019-05-21T13:05:36.705Z,21.20
2019-05-21T13:08:05.875Z,21.20
2019-05-21T13:10:36.380Z,21.20
2019-05-21T13:13:05.413Z,21.40
2019-05-21T13:15:34.326Z,21.40
2019-05-21T13:18:05.545Z,21.50
2019-05-21T13:20:34.412Z,21.60
2019-05-21T13:23:03.326Z,21.80
2019-05-21T13:25:32.215Z,21.80
2019-05-21T13:28:04.467Z,21.80
2019-05-21T13:30:33.451Z,21.60
2019-05-21T13:33:02.383Z,21.60
2019-05-21T13:35:31.331Z,21.60
2019-05-21T13:38:00.187Z,21.60
2019-05-21T13:40:30.028Z,21.60
2019-05-21T13:42:58.951Z,21.90
2019-05-21T13:45:27.913Z,22.10
2019-05-21T13:47:57.624Z,22.10
2019-05-21T13:50:26.630Z,22.10
2019-05-21T13:52:55.551Z,22.20
2019-05-21T13:55:24.478Z,22.20
2019-05-21T13:57:53.470Z,22.20
2019-05-21T14:00:27.026Z,22.20
2019-05-21T14:02:55.873Z,22.20
2019-05-21T14:05:26.314Z,22.10
2019-05-21T14:07:55.825Z,21.90
2019-05-21T14:10:24.948Z,21.80
2019-05-21T14:12:53.800Z,21.70
2019-05-21T14:15:22.716Z,21.70
2019-05-21T14:17:51.832Z,21.80
2019-05-21T14:20:21.083Z,21.80
2019-05-21T14:22:49.992Z,21.90
2019-05-21T14:25:18.941Z,22.10
2019-05-21T14:27:47.871Z,22.40
2019-05-21T14:30:17.224Z,22.60
2019-05-21T14:32:47.707Z,22.60
2019-05-21T14:35:19.726Z,22.60
2019-05-21T14:37:59.043Z,22.50
2019-05-21T14:40:32.093Z,22.50
2019-05-21T14:43:00.592Z,22.40
2019-05-21T14:45:33.672Z,22.40
2019-05-21T14:47:59.961Z,22.30
2019-05-21T14:50:28.880Z,22.20
2019-05-21T14:52:59.390Z,22.20
2019-05-21T14:55:28.248Z,22.10
2019-05-21T14:57:58.907Z,22.00
2019-05-21T15:00:39.006Z,22.00
2019-05-21T15:03:24.310Z,22.00
2019-05-21T15:05:42.532Z,22.00
2019-05-21T15:08:12.092Z,21.90
2019-05-21T15:10:48.559Z,21.80
2019-05-21T15:13:13.785Z,21.80
2019-05-21T15:15:48.779Z,21.80
2019-05-21T15:18:25.335Z,21.90
2019-05-21T15:21:03.298Z,22.10
2019-05-21T15:23:35.871Z,22.20
2019-05-21T15:26:05.554Z,22.30
2019-05-21T15:28:34.694Z,22.20
2019-05-21T15:31:03.689Z,22.20
2019-05-21T15:33:34.878Z,22.30
2019-05-21T15:36:03.879Z,22.20
2019-05-21T15:41:33.470Z,22.20
2019-05-21T15:44:02.446Z,22.20
2019-05-21T15:46:47.641Z,22.10
2019-05-21T15:52:08.050Z,21.90
2019-05-21T15:54:39.572Z,21.90
2019-05-21T15:57:11.269Z,21.80
2019-05-21T15:59:41.994Z,21.70
2019-05-21T16:02:15.457Z,21.60
2019-05-21T16:04:44.371Z,21.50
2019-05-21T16:07:14.511Z,21.60
2019-05-21T16:09:43.458Z,21.80
2019-05-21T16:12:12.395Z,21.80
2019-05-21T16:14:46.198Z,21.90
2019-05-21T16:17:15.142Z,21.90
2019-05-21T16:19:47.051Z,21.90
2019-05-21T16:22:16.026Z,21.80
2019-05-21T16:24:46.568Z,21.80
2019-05-21T16:27:23.957Z,21.80
2019-05-21T16:29:54.479Z,21.70
2019-05-21T16:32:23.356Z,21.50
2019-05-21T16:34:53.395Z,21.40
2019-05-21T16:37:22.816Z,21.30
2019-05-21T16:39:51.750Z,21.20
2019-05-21T16:48:28.659Z,20.90
2019-05-21T16:50:57.870Z,21.00
2019-05-21T16:53:26.789Z,20.90
2019-05-21T16:55:55.760Z,20.90
2019-05-21T16:58:24.660Z,20.80
2019-05-21T17:00:53.629Z,20.80
2019-05-21T17:03:22.535Z,20.80
2019-05-21T17:05:52.044Z,20.80
2019-05-21T17:08:20.934Z,20.70
2019-05-21T17:10:49.889Z,20.70
2019-05-21T17:13:19.044Z,20.70
2019-05-21T17:15:49.340Z,20.60
2019-05-21T17:18:19.041Z,20.60
2019-05-21T17:20:47.949Z,20.50
2019-05-21T17:23:17.963Z,20.50
2019-05-21T17:25:46.986Z,20.50
2019-05-21T17:28:16.101Z,20.50
2019-05-21T17:30:45.291Z,20.40
2019-05-21T17:33:14.924Z,20.40
2019-05-21T17:35:47.426Z,20.30
2019-05-21T17:38:16.366Z,20.20
2019-05-21T17:40:45.361Z,20.30
2019-05-21T17:43:14.414Z,20.20
2019-05-21T17:45:43.368Z,20.20
2019-05-21T17:48:12.291Z,20.20
2019-05-21T17:50:41.667Z,20.20
2019-05-21T17:53:10.696Z,20.20
2019-05-21T17:55:39.636Z,20.20
2019-05-21T17:58:08.569Z,20.10
2019-05-21T18:00:44.936Z,20.10
2019-05-21T18:03:14.482Z,20.10
2019-05-21T18:05:45.107Z,20.10
2019-05-21T18:08:17.040Z,20.10
2019-05-21T18:10:44.909Z,20.00
2019-05-21T18:13:14.029Z,20.00
2019-05-21T18:15:43.369Z,20.00
2019-05-21T18:18:12.438Z,19.90
2019-05-21T18:20:50.405Z,19.90
2019-05-21T18:23:19.497Z,20.00
2019-05-21T18:25:48.529Z,19.90
2019-05-21T18:28:17.386Z,20.00
2019-05-21T18:30:46.627Z,20.00
2019-05-21T18:33:18.052Z,20.00
2019-05-21T18:35:48.478Z,19.90
2019-05-21T18:38:17.653Z,19.90
2019-05-21T18:40:46.723Z,19.90
2019-05-21T18:45:56.680Z,19.90
2019-05-21T18:48:25.517Z,19.80
2019-05-21T18:50:54.439Z,19.90
2019-05-21T18:53:23.213Z,19.90
2019-05-21T18:55:52.080Z,19.80
2019-05-21T18:58:20.977Z,19.70
2019-05-21T19:00:49.926Z,19.60
2019-05-21T19:03:25.356Z,19.50
2019-05-21T19:05:51.482Z,19.50
2019-05-21T19:08:20.345Z,19.40
2019-05-21T19:10:49.393Z,19.40
2019-05-21T19:13:18.637Z,19.40
2019-05-21T19:15:47.544Z,19.40
2019-05-21T19:18:16.570Z,19.40
2019-05-21T19:20:45.493Z,19.40
2019-05-21T19:23:14.438Z,19.40
2019-05-21T19:25:46.991Z,19.40
2019-05-21T19:28:15.871Z,19.40
2019-05-21T19:31:07.186Z,19.30
2019-05-21T19:33:15.744Z,19.30
2019-05-21T19:35:45.586Z,19.00
2019-05-21T19:38:14.488Z,18.90
2019-05-21T19:40:44.630Z,18.90
2019-05-21T19:43:13.525Z,18.80
2019-05-21T19:45:42.527Z,18.80
2019-05-21T19:48:11.456Z,18.90
2019-05-21T19:50:40.473Z,18.80
2019-05-21T19:53:09.536Z,18.90
2019-05-21T19:55:38.751Z,18.80
2019-05-21T19:58:08.075Z,18.80
2019-05-21T20:00:38.548Z,18.80
2019-05-21T20:03:07.768Z,18.70
2019-05-21T20:05:36.837Z,18.70
2019-05-21T20:08:06.122Z,18.60
2019-05-21T20:10:35.500Z,18.60
2019-05-21T20:13:04.372Z,18.60
2019-05-21T20:15:33.258Z,18.60
2019-05-21T20:18:07.439Z,18.60
2019-05-21T20:20:33.228Z,18.60
2019-05-21T20:23:03.043Z,18.60
2019-05-21T20:25:33.661Z,18.60
2019-05-21T20:28:03.070Z,18.60
2019-05-21T20:30:33.497Z,18.60
2019-05-21T20:33:02.415Z,18.60
2019-05-21T20:35:31.751Z,18.60
2019-05-21T20:38:04.584Z,18.60
2019-05-21T20:40:33.604Z,18.60
2019-05-21T20:43:02.631Z,18.60
2019-05-21T20:45:33.170Z,18.70
2019-05-21T20:48:02.810Z,18.70
2019-05-21T20:50:31.865Z,18.70
2019-05-21T20:53:00.994Z,18.70
2019-05-21T20:55:31.073Z,18.60
2019-05-21T20:58:00.254Z,18.60
2019-05-21T21:00:30.821Z,18.50
2019-05-21T21:03:00.657Z,18.60
2019-05-21T21:05:29.773Z,18.50
2019-05-21T21:07:58.635Z,18.40
2019-05-21T21:10:27.477Z,18.30
2019-05-21T21:12:56.557Z,18.20
2019-05-21T21:15:26.271Z,18.10
2019-05-21T21:17:55.224Z,18.10
2019-05-21T21:20:24.132Z,18.10
2019-05-21T21:22:53.073Z,18.00
